Time;durP1;ratioP1;P1;durP2;ratioP2;P2;SDS_P1;SDS_P2;PMS_P1;PMS_P2;Temp;Humidity;BMP_temperature;BMP_pressure;BME280_temperature;BME280_humidity;BME280_pressure;Samples;Min_cycle;Max_cycle;Signal;HPM_P1;HPM_P2
2022/07/12 00:01:33;;;;;;;;;;;;;;;;;;5035120;28;40852;-78
2022/07/12 00:03:59;;;;;;;;;;;;;;;;;;5048961;28;47360;-78
2022/07/12 00:06:26;;;;;;;;;;;;;;;;;;5028796;28;45317;-79
2022/07/12 00:08:52;;;;;;;;;;;;;;;;;;5050656;28;46478;-78
2022/07/12 00:11:18;;;;;;;;;;;;;;;;;;5037534;28;48380;-78
2022/07/12 00:13:45;;;;;;;;;;;;;;;;;;5050215;28;44804;-79
2022/07/12 00:16:11;;;;;;;;;;;;;;;;;;5032025;28;46426;-79
2022/07/12 00:18:37;;;;;;;;;;;;;;;;;;5033768;28;46769;-79
2022/07/12 00:21:04;;;;;;;;;;;;;;;;;;5033137;28;44043;-78
2022/07/12 00:23:30;;;;;;;;;;;;;;;;;;5031351;28;46594;-79
2022/07/12 00:25:56;;;;;;;;;;;;;;;;;;5046063;28;43593;-79
2022/07/12 00:28:23;;;;;;;;;;;;;;;;;;5048200;28;47744;-79
2022/07/12 00:30:49;;;;;;;;;;;;;;;;;;5034789;28;48199;-79
2022/07/12 00:33:15;;;;;;;;;;;;;;;;;;5049079;28;45018;-79
2022/07/12 00:35:41;;;;;;;;;;;;;;;;;;5032242;28;46248;-79
2022/07/12 00:38:08;;;;;;;;;;;;;;;;;;5030204;28;46973;-78
2022/07/12 00:40:34;;;;;;;;;;;;;;;;;;5030721;28;42302;-79
2022/07/12 00:43:00;;;;;;;;;;;;;;;;;;5030580;28;44855;-79
2022/07/12 00:45:26;;;;;;;;;;;;;;;;;;5033653;28;44961;-78
2022/07/12 00:47:52;;;;;;;;;;;;;;;;;;5035779;28;44512;-78
2022/07/12 00:50:19;;;;;;;;;;;;;;;;;;5032787;28;44992;-78
2022/07/12 00:52:45;;;;;;;;;;;;;;;;;;5039609;28;43560;-78
2022/07/12 00:55:11;;;;;;;;;;;;;;;;;;5032723;28;46426;-79
2022/07/12 00:57:38;;;;;;;;;;;;;;;;;;5032557;28;45908;-79
2022/07/12 01:00:04;;;;;;;;;;;;;;;;;;5035148;28;43736;-79
2022/07/12 01:02:30;;;;;;;;;;;;;;;;;;5048277;28;45058;-79
2022/07/12 01:04:56;;;;;;;;;;;;;;;;;;5050049;28;46903;-79
2022/07/12 01:07:26;;;;;;;;;;;;;;;;;;5032033;28;43582;-78
2022/07/12 01:09:55;;;;;;;;;;;;;;;;;;5028284;28;48518;-79
2022/07/12 01:12:21;;;;;;;;;;;;;;;;;;5029907;28;45732;-79
2022/07/12 01:14:48;;;;;;;;;;;;;;;;;;5038667;28;47370;-79
2022/07/12 01:17:14;;;;;;;;;;;;;;;;;;5033586;28;46065;-79
2022/07/12 01:19:40;;;;;;;;;;;;;;;;;;5025998;28;42514;-79
2022/07/12 01:22:06;;;;;;;;;;;;;;;;;;5033211;28;47477;-79
2022/07/12 01:24:33;;;;;;;;;;;;;;;;;;5030215;28;47951;-79
2022/07/12 01:26:59;;;;;;;;;;;;;;;;;;5032256;28;43961;-79
2022/07/12 01:29:25;;;;;;;;;;;;;;;;;;5038183;28;47912;-79
2022/07/12 01:31:51;;;;;;;;;;;;;;;;;;5037750;28;44188;-78
2022/07/12 01:34:18;;;;;;;;;;;;;;;;;;5029508;28;46738;-79
2022/07/12 01:36:45;;;;;;;;;;;;;;;;;;5050851;28;44201;-79
2022/07/12 01:39:12;;;;;;;;;;;;;;;;;;5032441;28;45117;-79
2022/07/12 01:41:39;;;;;;;;;;;;;;;;;;5049109;28;46088;-79
2022/07/12 01:44:05;;;;;;;;;;;;;;;;;;5050233;28;47012;-79
2022/07/12 01:46:31;;;;;;;;;;;;;;;;;;5030312;28;43465;-80
2022/07/12 01:48:57;;;;;;;;;;;;;;;;;;5031742;28;44769;-79
2022/07/12 01:51:24;;;;;;;;;;;;;;;;;;5036087;28;41921;-79
2022/07/12 01:53:50;;;;;;;;;;;;;;;;;;5036137;28;46430;-78
2022/07/12 01:56:16;;;;;;;;;;;;;;;;;;5048854;28;46994;-79
2022/07/12 01:58:43;;;;;;;;;;;;;;;;;;5026373;28;46970;-78
2022/07/12 02:01:09;;;;;;;;;;;;;;;;;;5028216;28;48853;-79
2022/07/12 02:03:36;;;;;;;;;;;;;;;;;;5040019;28;48328;-79
2022/07/12 02:06:03;;;;;;;;;;;;;;;;;;5043002;28;43681;-79
2022/07/12 02:08:29;;;;;;;;;;;;;;;;;;5030456;28;44602;-79
2022/07/12 02:10:55;;;;;;;;;;;;;;;;;;5029730;28;46977;-79
2022/07/12 02:13:22;;;;;;;;;;;;;;;;;;5051228;28;46286;-79
2022/07/12 02:15:48;;;;;;;;;;;;;;;;;;5033692;28;44811;-79
2022/07/12 02:18:14;;;;;;;;;;;;;;;;;;5043313;28;44298;-79
2022/07/12 02:20:40;;;;;;;;;;;;;;;;;;5033625;28;47448;-79
2022/07/12 02:23:07;;;;;;;;;;;;;;;;;;5049828;28;48203;-79
2022/07/12 02:25:33;;;;;;;;;;;;;;;;;;5051776;28;42500;-78
2022/07/12 02:27:59;;;;;;;;;;;;;;;;;;5040168;28;47495;-79
2022/07/12 02:30:26;;;;;;;;;;;;;;;;;;5033284;28;46792;-79
2022/07/12 02:32:52;;;;;;;;;;;;;;;;;;5036711;28;44663;-79
2022/07/12 02:35:19;;;;;;;;;;;;;;;;;;5033107;28;46426;-79
2022/07/12 02:37:45;;;;;;;;;;;;;;;;;;5030917;28;43716;-78
2022/07/12 02:42:56;;;;;;;;;;;;;;;;;;5050516;28;46906;-79
2022/07/12 02:45:23;;;;;;;;;;;;;;;;;;5032956;28;44455;-78
2022/07/12 02:47:49;;;;;;;;;;;;;;;;;;5030877;28;45373;-79
2022/07/12 02:50:15;;;;;;;;;;;;;;;;;;5046145;28;45961;-79
2022/07/12 02:52:41;;;;;;;;;;;;;;;;;;5032655;28;42930;-79
2022/07/12 02:55:08;;;;;;;;;;;;;;;;;;5044756;28;46225;-79
2022/07/12 02:57:34;;;;;;;;;;;;;;;;;;5045866;28;46014;-79
2022/07/12 03:00:00;;;;;;;;;;;;;;;;;;5031179;28;45803;-79
2022/07/12 03:02:27;;;;;;;;;;;;;;;;;;5031385;28;45316;-79
2022/07/12 03:04:53;;;;;;;;;;;;;;;;;;5045210;28;45868;-79
2022/07/12 03:07:19;;;;;;;;;;;;;;;;;;5029323;28;45262;-79
2022/07/12 03:09:46;;;;;;;;;;;;;;;;;;5029169;28;48337;-79
2022/07/12 03:12:12;;;;;;;;;;;;;;;;;;5033800;28;44869;-78
2022/07/12 03:14:38;;;;;;;;;;;;;;;;;;5021232;28;46255;-79
2022/07/12 03:17:05;;;;;;;;;;;;;;;;;;5043055;28;45475;-79
2022/07/12 03:19:31;;;;;;;;;;;;;;;;;;5033597;28;44147;-80
2022/07/12 03:21:57;;;;;;;;;;;;;;;;;;5041677;28;46425;-78
2022/07/12 03:24:23;;;;;;;;;;;;;;;;;;5032809;28;45235;-79
2022/07/12 03:26:51;;;;;;;;;;;;;;;;;;5033862;28;47866;-79
2022/07/12 03:29:17;;;;;;;;;;;;;;;;;;5047936;28;47058;-79
2022/07/12 03:31:43;;;;;;;;;;;;;;;;;;5051256;28;45719;-79
2022/07/12 03:34:10;;;;;;;;;;;;;;;;;;5039252;28;46888;-82
2022/07/12 03:36:36;;;;;;;;;;;;;;;;;;5036177;28;47085;-81
2022/07/12 03:39:02;;;;;;;;;;;;;;;;;;5053899;28;44757;-81
2022/07/12 03:41:28;;;;;;;;;;;;;;;;;;5053682;28;45298;-81
2022/07/12 03:43:55;;;;;;;;;;;;;;;;;;5043116;28;41849;-81
2022/07/12 03:46:21;;;;;;;;;;;;;;;;;;5045191;28;44273;-81
2022/07/12 03:48:47;;;;;;;;;;;;;;;;;;5050786;28;46529;-83
2022/07/12 03:51:13;;;;;;;;;;;;;;;;;;5036445;28;42944;-83
2022/07/12 03:53:40;;;;;;;;;;;;;;;;;;5034869;28;47703;-85
2022/07/12 03:56:06;;;;;;;;;;;;;;;;;;5053543;28;48146;-85
2022/07/12 03:58:32;;;;;;;;;;;;;;;;;;5052969;28;42222;-84
2022/07/12 04:00:58;;;;;;;;;;;;;;;;;;5035957;28;47055;-82
2022/07/12 04:03:25;;;;;;;;;;;;;;;;;;5054141;28;43230;-85
2022/07/12 04:05:51;;;;;;;;;;;;;;;;;;5035658;28;47921;-82
2022/07/12 04:08:20;;;;;;;;;;;;;;;;;;5040419;28;48427;-81
2022/07/12 04:10:46;;;;;;;;;;;;;;;;;;5036462;28;42888;-81
2022/07/12 04:13:12;;;;;;;;;;;;;;;;;;5038605;28;47768;-80
2022/07/12 04:15:39;;;;;;;;;;;;;;;;;;5053237;28;45744;-84
2022/07/12 04:18:05;;;;;;;;;;;;;;;;;;5032668;28;43357;-85
2022/07/12 04:20:32;;;;;;;;;;;;;;;;;;5053768;28;47984;-82
2022/07/12 04:22:58;;;;;;;;;;;;;;;;;;5050198;28;43860;-82
2022/07/12 04:25:25;;;;;;;;;;;;;;;;;;5052874;28;51181;-83
2022/07/12 04:27:51;;;;;;;;;;;;;;;;;;5042697;28;44603;-80
2022/07/12 04:30:17;;;;;;;;;;;;;;;;;;5053047;28;43039;-82
2022/07/12 04:32:43;;;;;;;;;;;;;;;;;;5035890;28;47715;-85
2022/07/12 04:35:10;;;;;;;;;;;;;;;;;;5025869;28;45909;-86
2022/07/12 04:37:36;;;;;;;;;;;;;;;;;;5050715;28;42215;-83
2022/07/12 04:40:02;;;;;;;;;;;;;;;;;;5038362;28;44772;-82
2022/07/12 04:42:29;;;;;;;;;;;;;;;;;;5038479;28;46975;-81
2022/07/12 04:44:55;;;;;;;;;;;;;;;;;;5040699;28;47773;-81
2022/07/12 04:47:21;;;;;;;;;;;;;;;;;;5051222;28;46816;-82
2022/07/12 04:49:47;;;;;;;;;;;;;;;;;;5047802;28;43389;-81
2022/07/12 04:52:14;;;;;;;;;;;;;;;;;;5051912;28;44707;-82
2022/07/12 04:54:40;;;;;;;;;;;;;;;;;;5035246;28;46643;-81
2022/07/12 04:57:06;;;;;;;;;;;;;;;;;;5035662;28;43148;-80
2022/07/12 04:59:33;;;;;;;;;;;;;;;;;;5031609;28;47449;-79
2022/07/12 05:01:59;;;;;;;;;;;;;;;;;;5046774;28;45739;-80
2022/07/12 05:04:25;;;;;;;;;;;;;;;;;;5032151;28;44363;-79
2022/07/12 05:06:52;;;;;;;;;;;;;;;;;;5049487;28;46820;-78
2022/07/12 05:09:18;;;;;;;;;;;;;;;;;;5048220;28;43981;-79
2022/07/12 05:11:44;;;;;;;;;;;;;;;;;;5046921;28;44909;-79
2022/07/12 05:14:11;;;;;;;;;;;;;;;;;;5049135;28;46412;-79
2022/07/12 05:16:37;;;;;;;;;;;;;;;;;;5032910;28;41870;-79
2022/07/12 05:19:03;;;;;;;;;;;;;;;;;;5047922;28;45337;-78
2022/07/12 05:21:30;;;;;;;;;;;;;;;;;;5046058;28;48126;-78
2022/07/12 05:23:56;;;;;;;;;;;;;;;;;;5049448;28;45714;-78
2022/07/12 05:26:22;;;;;;;;;;;;;;;;;;5030501;28;46206;-77
2022/07/12 05:28:48;;;;;;;;;;;;;;;;;;5030149;28;43024;-78
2022/07/12 05:31:15;;;;;;;;;;;;;;;;;;5027050;28;44600;-79
2022/07/12 05:33:41;;;;;;;;;;;;;;;;;;5045109;28;45504;-79
2022/07/12 05:36:07;;;;;;;;;;;;;;;;;;5049637;28;44845;-78
2022/07/12 05:38:34;;;;;;;;;;;;;;;;;;5020160;28;46200;-78
2022/07/12 05:41:00;;;;;;;;;;;;;;;;;;5028632;28;46866;-80
2022/07/12 05:43:26;;;;;;;;;;;;;;;;;;5051112;28;43964;-81
2022/07/12 05:45:53;;;;;;;;;;;;;;;;;;5046215;28;46466;-80
2022/07/12 05:48:19;;;;;;;;;;;;;;;;;;5047063;28;34418;-80
2022/07/12 05:50:45;;;;;;;;;;;;;;;;;;5032023;28;46373;-79
2022/07/12 05:53:21;;;;;;;;;;;;;;;;;;5031516;28;47069;-81
2022/07/12 05:55:48;;;;;;;;;;;;;;;;;;5048301;28;41305;-78
2022/07/12 05:58:14;;;;;;;;;;;;;;;;;;5036220;28;43832;-78
2022/07/12 06:00:40;;;;;;;;;;;;;;;;;;5045723;28;48215;-78
2022/07/12 06:03:06;;;;;;;;;;;;;;;;;;5029727;28;43555;-79
2022/07/12 06:05:33;;;;;;;;;;;;;;;;;;5030892;28;46187;-79
2022/07/12 06:07:59;;;;;;;;;;;;;;;;;;5049294;28;46942;-80
2022/07/12 06:10:25;;;;;;;;;;;;;;;;;;5026939;28;46061;-79
2022/07/12 06:12:53;;;;;;;;;;;;;;;;;;5046857;28;48313;-79
2022/07/12 06:15:20;;;;;;;;;;;;;;;;;;5048965;28;43927;-79
2022/07/12 06:17:47;;;;;;;;;;;;;;;;;;5023333;28;47835;-79
2022/07/12 06:20:14;;;;;;;;;;;;;;;;;;5013000;28;45620;-79
2022/07/12 06:22:40;;;;;;;;;;;;;;;;;;5028938;28;44852;-79
2022/07/12 06:25:07;;;;;;;;;;;;;;;;;;5032165;28;46642;-80
2022/07/12 06:27:53;;;;;;;;;;;;;;;;;;5042612;28;19940;-79
2022/07/12 06:30:19;;;;;;;;;;;;;;;;;;5028394;28;44767;-77
2022/07/12 06:32:49;;;;;;;;;;;;;;;;;;5037610;28;45269;-79
2022/07/12 06:35:16;;;;;;;;;;;;;;;;;;5033314;28;43737;-78
2022/07/12 06:37:42;;;;;;;;;;;;;;;;;;5051766;28;45049;-78
2022/07/12 06:40:08;;;;;;;;;;;;;;;;;;5044817;28;46959;-78
2022/07/12 06:42:34;;;;;;;;;;;;;;;;;;5045898;28;45514;-78
2022/07/12 06:45:10;;;;;;;;;;;;;;;;;;5050883;28;45487;-79
2022/07/12 06:47:36;;;;;;;;;;;;;;;;;;5013166;28;46967;-83
2022/07/12 06:50:03;;;;;;;;;;;;;;;;;;5021353;28;43631;-80
2022/07/12 06:52:30;;;;;;;;;;;;;;;;;;5042539;28;46397;-78
2022/07/12 06:54:56;;;;;;;;;;;;;;;;;;5049508;28;45700;-83
2022/07/12 06:57:23;;;;;;;;;;;;;;;;;;5052881;28;46419;-78
2022/07/12 06:59:49;;;;;;;;;;;;;;;;;;5035212;28;46900;-79
2022/07/12 07:02:15;;;;;;;;;;;;;;;;;;5047502;28;45027;-86
2022/07/12 07:04:41;;;;;;;;;;;;;;;;;;5038223;28;48450;-84
2022/07/12 07:07:08;;;;;;;;;;;;;;;;;;5049241;28;46858;-82
2022/07/12 07:09:37;;;;;;;;;;;;;;;;;;5051085;28;45974;-79
2022/07/12 07:12:03;;;;;;;;;;;;;;;;;;5033719;28;46503;-79
2022/07/12 07:14:29;;;;;;;;;;;;;;;;;;5045422;28;46979;-80
2022/07/12 07:16:56;;;;;;;;;;;;;;;;;;5031169;28;46479;-79
2022/07/12 07:19:26;;;;;;;;;;;;;;;;;;5046886;28;48588;-78
2022/07/12 07:21:53;;;;;;;;;;;;;;;;;;5031511;28;41412;-79
2022/07/12 07:24:20;;;;;;;;;;;;;;;;;;5031004;28;47392;-80
2022/07/12 07:26:46;;;;;;;;;;;;;;;;;;5034522;28;49196;-78
2022/07/12 07:31:59;;;;;;;;;;;;;;;;;;5009922;28;47435;-78
2022/07/12 07:34:25;;;;;;;;;;;;;;;;;;5047978;28;46028;-79
2022/07/12 07:36:51;;;;;;;;;;;;;;;;;;5030852;28;41709;-77
2022/07/12 07:39:18;;;;;;;;;;;;;;;;;;5031224;28;46972;-78
2022/07/12 07:41:46;;;;;;;;;;;;;;;;;;5026872;28;44659;-78
2022/07/12 07:44:12;;;;;;;;;;;;;;;;;;5024686;28;44888;-77
2022/07/12 07:46:39;;;;;;;;;;;;;;;;;;5046587;28;50157;-77
2022/07/12 07:49:05;;;;;;;;;;;;;;;;;;5029633;28;42716;-77
2022/07/12 07:51:31;;;;;;;;;;;;;;;;;;5025977;28;47719;-77
2022/07/12 07:53:58;;;;;;;;;;;;;;;;;;5047188;28;47994;-77
2022/07/12 07:56:24;;;;;;;;;;;;;;;;;;5049027;28;43892;-77
2022/07/12 07:58:52;;;;;;;;;;;;;;;;;;5044358;28;46411;-77
2022/07/12 08:01:18;;;;;;;;;;;;;;;;;;5012568;28;45994;-77
2022/07/12 08:03:44;;;;;;;;;;;;;;;;;;5040284;28;47528;-77
2022/07/12 08:06:10;;;;;;;;;;;;;;;;;;5045875;28;46876;-77
2022/07/12 08:08:37;;;;;;;;;;;;;;;;;;5032678;28;43754;-77
2022/07/12 08:11:23;;;;;;;;;;;;;;;;;;5030436;28;19937;-77
2022/07/12 08:13:49;;;;;;;;;;;;;;;;;;5018223;28;47002;-77
2022/07/12 08:16:16;;;;;;;;;;;;;;;;;;5049207;28;44753;-78
2022/07/12 08:18:42;;;;;;;;;;;;;;;;;;5047939;28;49025;-78
2022/07/12 08:21:08;;;;;;;;;;;;;;;;;;5034529;28;43893;-78
2022/07/12 08:23:35;;;;;;;;;;;;;;;;;;5047103;28;46645;-80
2022/07/12 08:26:24;;;;;;;;;;;;;;;;;;5047220;28;19933;-78
2022/07/12 08:28:50;;;;;;;;;;;;;;;;;;5031559;28;41839;-79
2022/07/12 08:31:16;;;;;;;;;;;;;;;;;;5043393;28;45782;-80
2022/07/12 08:33:45;;;;;;;;;;;;;;;;;;5026434;28;48107;-77
2022/07/12 08:36:13;;;;;;;;;;;;;;;;;;5031449;28;43242;-78
2022/07/12 08:38:43;;;;;;;;;;;;;;;;;;5040737;28;46418;-78
2022/07/12 08:41:14;;;;;;;;;;;;;;;;;;5029772;28;46694;-78
2022/07/12 08:43:41;;;;;;;;;;;;;;;;;;5020890;28;45661;-77
2022/07/12 08:46:10;;;;;;;;;;;;;;;;;;5027953;28;48060;-77
2022/07/12 08:48:37;;;;;;;;;;;;;;;;;;5027631;28;43777;-78
2022/07/12 08:51:03;;;;;;;;;;;;;;;;;;5046676;28;44592;-78
2022/07/12 08:53:32;;;;;;;;;;;;;;;;;;5033296;28;45467;-78
2022/07/12 08:56:04;;;;;;;;;;;;;;;;;;5042189;28;43313;-78
2022/07/12 09:01:16;;;;;;;;;;;;;;;;;;4937330;26;19933;-78
2022/07/12 09:03:48;;;;;;;;;;;;;;;;;;5016650;28;43010;-78
2022/07/12 09:06:14;;;;;;;;;;;;;;;;;;5023825;28;46676;-78
2022/07/12 09:08:40;;;;;;;;;;;;;;;;;;5025836;28;42116;-78
2022/07/12 09:11:08;;;;;;;;;;;;;;;;;;5010451;28;47399;-78
2022/07/12 09:13:34;;;;;;;;;;;;;;;;;;5023166;28;46026;-78
2022/07/12 09:16:00;;;;;;;;;;;;;;;;;;5007414;28;43686;-78
2022/07/12 09:18:28;;;;;;;;;;;;;;;;;;5026564;28;46508;-78
2022/07/12 09:20:55;;;;;;;;;;;;;;;;;;5025323;28;48082;-77
2022/07/12 09:23:21;;;;;;;;;;;;;;;;;;5011460;28;44081;-78
2022/07/12 09:25:48;;;;;;;;;;;;;;;;;;5015122;28;47740;-77
2022/07/12 09:28:15;;;;;;;;;;;;;;;;;;4997462;28;44082;-78
2022/07/12 09:30:41;;;;;;;;;;;;;;;;;;5015672;28;46269;-78
2022/07/12 09:36:13;;;;;;;;;;;;;;;;;;5015317;28;43925;-78
2022/07/12 09:41:33;;;;;;;;;;;;;;;;;;5072678;22;19933;-78
2022/07/12 09:44:06;;;;;;;;;;;;;;;;;;5001030;28;43361;-78
2022/07/12 09:46:34;;;;;;;;;;;;;;;;;;5016142;28;45583;-78
2022/07/12 09:49:01;;;;;;;;;;;;;;;;;;5020645;28;46426;-78
2022/07/12 09:51:29;;;;;;;;;;;;;;;;;;4996545;28;45806;-78
2022/07/12 09:53:56;;;;;;;;;;;;;;;;;;4982490;28;47965;-78
2022/07/12 09:56:23;;;;;;;;;;;;;;;;;;4998980;28;43332;-78
2022/07/12 09:58:49;;;;;;;;;;;;;;;;;;4995941;28;47711;-78
2022/07/12 10:01:15;;;;;;;;;;;;;;;;;;5007810;28;48265;-79
2022/07/12 10:03:42;;;;;;;;;;;;;;;;;;4990165;28;44059;-81
2022/07/12 10:06:09;;;;;;;;;;;;;;;;;;4989898;28;47001;-82
2022/07/12 10:08:38;;;;;;;;;;;;;;;;;;4999479;28;46850;-79
2022/07/12 10:11:06;;;;;;;;;;;;;;;;;;4995261;28;45388;-82
2022/07/12 10:13:32;;;;;;;;;;;;;;;;;;5001922;28;44378;-80
2022/07/12 10:15:59;;;;;;;;;;;;;;;;;;4995702;28;43322;-81
2022/07/12 10:18:25;;;;;;;;;;;;;;;;;;5006620;28;43775;-83
2022/07/12 10:20:51;;;;;;;;;;;;;;;;;;5004050;28;47134;-82
2022/07/12 10:23:21;;;;;;;;;;;;;;;;;;4992476;28;43817;-78
2022/07/12 10:25:48;;;;;;;;;;;;;;;;;;4996486;28;45034;-78
2022/07/12 10:28:14;;;;;;;;;;;;;;;;;;4994703;28;46639;-78
2022/07/12 10:30:41;;;;;;;;;;;;;;;;;;5003964;28;45155;-78
2022/07/12 10:33:07;;;;;;;;;;;;;;;;;;4995361;28;46917;-78
2022/07/12 10:35:34;;;;;;;;;;;;;;;;;;4992970;28;43664;-78
2022/07/12 10:38:00;;;;;;;;;;;;;;;;;;5005901;28;47453;-78
2022/07/12 10:40:26;;;;;;;;;;;;;;;;;;5006601;28;46133;-78
2022/07/12 10:42:52;;;;;;;;;;;;;;;;;;4990636;28;43618;-79
2022/07/12 10:48:28;;;;;;;;;;;;;;;;;;5000062;28;20016;-78
2022/07/12 10:50:57;;;;;;;;;;;;;;;;;;5007339;28;43552;-78
2022/07/12 10:53:25;;;;;;;;;;;;;;;;;;5006782;28;46101;-79
2022/07/12 10:55:57;;;;;;;;;;;;;;;;;;5005493;28;44933;-78
2022/07/12 10:58:25;;;;;;;;;;;;;;;;;;4989059;28;47700;-78
2022/07/12 11:00:52;;;;;;;;;;;;;;;;;;5009539;28;47287;-78
2022/07/12 11:03:18;;;;;;;;;;;;;;;;;;4989018;28;43762;-78
2022/07/12 11:05:44;;;;;;;;;;;;;;;;;;5003229;28;46434;-78
2022/07/12 11:08:11;;;;;;;;;;;;;;;;;;4994846;28;47360;-78
2022/07/12 11:10:38;;;;;;;;;;;;;;;;;;4992745;28;44772;-78
2022/07/12 11:13:04;;;;;;;;;;;;;;;;;;5006400;28;47575;-78
2022/07/12 11:15:30;;;;;;;;;;;;;;;;;;4987033;28;47968;-76
2022/07/12 11:17:56;;;;;;;;;;;;;;;;;;5000355;28;44828;-79
2022/07/12 11:20:23;;;;;;;;;;;;;;;;;;4989824;28;46262;-79
2022/07/12 11:22:49;;;;;;;;;;;;;;;;;;4999033;28;43800;-78
2022/07/12 11:25:15;;;;;;;;;;;;;;;;;;5003608;28;47676;-78
2022/07/12 11:27:42;;;;;;;;;;;;;;;;;;5003048;28;46995;-78
2022/07/12 11:30:08;;;;;;;;;;;;;;;;;;4998815;28;45125;-78
2022/07/12 11:32:35;;;;;;;;;;;;;;;;;;4998499;28;47739;-78
2022/07/12 11:35:01;;;;;;;;;;;;;;;;;;4991293;28;47964;-78
2022/07/12 11:37:27;;;;;;;;;;;;;;;;;;5004127;28;42664;-78
2022/07/12 11:39:53;;;;;;;;;;;;;;;;;;4988627;28;48440;-78
2022/07/12 11:42:20;;;;;;;;;;;;;;;;;;5005210;28;43743;-78
2022/07/12 11:44:46;;;;;;;;;;;;;;;;;;5008133;28;44505;-78
2022/07/12 11:47:12;;;;;;;;;;;;;;;;;;4998291;28;45234;-78
2022/07/12 11:49:38;;;;;;;;;;;;;;;;;;5009922;28;43648;-78
2022/07/12 11:52:05;;;;;;;;;;;;;;;;;;4992926;28;45224;-78
2022/07/12 11:54:31;;;;;;;;;;;;;;;;;;5008169;28;47176;-78
2022/07/12 11:56:58;;;;;;;;;;;;;;;;;;5007919;28;44788;-78
2022/07/12 11:59:24;;;;;;;;;;;;;;;;;;4989568;28;45100;-78
2022/07/12 12:01:50;;;;;;;;;;;;;;;;;;5005494;28;45349;-78
2022/07/12 12:04:19;;;;;;;;;;;;;;;;;;4993458;28;44879;-78
2022/07/12 12:06:45;;;;;;;;;;;;;;;;;;5006615;28;45570;-78
2022/07/12 12:09:12;;;;;;;;;;;;;;;;;;5007953;28;45085;-78
2022/07/12 12:11:38;;;;;;;;;;;;;;;;;;5007836;28;44187;-78
2022/07/12 12:14:05;;;;;;;;;;;;;;;;;;5005187;28;47805;-78
2022/07/12 12:16:31;;;;;;;;;;;;;;;;;;4994563;28;43065;-78
2022/07/12 12:18:58;;;;;;;;;;;;;;;;;;4996934;28;46191;-78
2022/07/12 12:21:24;;;;;;;;;;;;;;;;;;5008191;28;41436;-78
2022/07/12 12:23:51;;;;;;;;;;;;;;;;;;5001110;28;47243;-78
2022/07/12 12:26:17;;;;;;;;;;;;;;;;;;4991270;28;48101;-78
2022/07/12 12:28:43;;;;;;;;;;;;;;;;;;5008200;28;43710;-78
2022/07/12 12:31:10;;;;;;;;;;;;;;;;;;5012422;28;47502;-78
2022/07/12 12:33:36;;;;;;;;;;;;;;;;;;5009205;28;46994;-78
2022/07/12 12:36:02;;;;;;;;;;;;;;;;;;5012701;28;45053;-78
2022/07/12 12:38:29;;;;;;;;;;;;;;;;;;4992620;28;45459;-78
2022/07/12 12:40:56;;;;;;;;;;;;;;;;;;4981889;28;46763;-78
2022/07/12 12:43:22;;;;;;;;;;;;;;;;;;5006880;28;46770;-78
2022/07/12 12:45:49;;;;;;;;;;;;;;;;;;4995136;28;48108;-78
2022/07/12 12:48:15;;;;;;;;;;;;;;;;;;4991556;28;45679;-78
2022/07/12 12:50:42;;;;;;;;;;;;;;;;;;4991482;28;46611;-78
2022/07/12 12:53:09;;;;;;;;;;;;;;;;;;4997291;28;47472;-78
2022/07/12 12:55:35;;;;;;;;;;;;;;;;;;5020940;28;45076;-78
2022/07/12 12:58:06;;;;;;;;;;;;;;;;;;5007722;28;46242;-78
2022/07/12 13:00:32;;;;;;;;;;;;;;;;;;4984888;28;48837;-77
2022/07/12 13:03:00;;;;;;;;;;;;;;;;;;5009816;28;43715;-79
2022/07/12 13:05:26;;;;;;;;;;;;;;;;;;5003212;28;45693;-79
2022/07/12 13:07:52;;;;;;;;;;;;;;;;;;5005652;28;43754;-78
2022/07/12 13:10:19;;;;;;;;;;;;;;;;;;4980331;28;47765;-78
2022/07/12 13:12:45;;;;;;;;;;;;;;;;;;4989704;28;46668;-78
2022/07/12 13:15:11;;;;;;;;;;;;;;;;;;4998755;28;44752;-79
2022/07/12 13:17:38;;;;;;;;;;;;;;;;;;5008087;28;45756;-79
2022/07/12 13:20:04;;;;;;;;;;;;;;;;;;5003461;28;45878;-79
2022/07/12 13:22:30;;;;;;;;;;;;;;;;;;4987013;28;43631;-78
2022/07/12 13:24:56;;;;;;;;;;;;;;;;;;5010977;28;46436;-79
2022/07/12 13:27:23;;;;;;;;;;;;;;;;;;4974813;28;43186;-78
2022/07/12 13:29:49;;;;;;;;;;;;;;;;;;5007963;28;47435;-78
2022/07/12 13:32:15;;;;;;;;;;;;;;;;;;4988328;28;48131;-78
2022/07/12 13:34:41;;;;;;;;;;;;;;;;;;5006955;28;43955;-78
2022/07/12 13:37:08;;;;;;;;;;;;;;;;;;4993004;28;47533;-78
2022/07/12 13:42:19;;;;;;;;;;;;;;;;;;5006566;28;43740;-79
2022/07/12 13:44:46;;;;;;;;;;;;;;;;;;5005251;28;46418;-78
2022/07/12 13:47:12;;;;;;;;;;;;;;;;;;4984703;28;46620;-78
2022/07/12 13:49:57;;;;;;;;;;;;;;;;;;5054572;22;47456;-78
2022/07/12 13:52:49;;;;;;;;;;;;;;;;;;5001210;28;19930;-78
2022/07/12 13:55:47;;;;;;;;;;;;;;;;;;;;;
2022/07/12 13:58:32;;;;;;;;;;;;;;;;;;4924972;29;19931;-78
2022/07/12 14:13:19;;;;;;;;;;;;;;;;;;6359321;22;20371;-78
2022/07/12 14:16:30;;;;;;;;;;;;;;;;;;5143037;27;19924;-78
2022/07/12 14:18:56;;;;;;;;;;;;;;;;;;5116337;27;46011;-79
2022/07/12 14:21:34;;;;;;;;;;;;;;;;;;5099604;27;42457;-79
2022/07/12 14:24:09;;;;;;;;;;;;;;;;;;5099061;28;49163;-79
2022/07/12 14:29:46;;;;;;;;;;;;;;;;;;5094125;28;42646;-80
2022/07/12 14:32:16;;;;;;;;;;;;;;;;;;5091656;27;46914;-80
2022/07/12 14:34:55;;;;;;;;;;;;;;;;;;5105787;27;47287;-79
2022/07/12 14:37:49;;;;;;;;;;;;;;;;;;5101046;27;19951;-78
2022/07/12 14:40:19;;;;;;;;;;;;;;;;;;5097323;27;47156;-78
2022/07/12 14:49:25;;;;;;;;;;;;;;;;;;5090309;28;20031;-78
2022/07/12 14:58:29;;;;;;;;;;;;;;;;;;5030564;28;49258;-80
2022/07/12 15:04:27;;;;;;;;;;;;;;;;;;4978793;28;20025;-78
2022/07/12 15:07:38;;;;;;;;;;;;;;;;;;;;;
2022/07/12 15:10:24;;;;;;;;;;;;;;;;;;4989795;28;47658;-80
2022/07/12 15:12:51;;;;;;;;;;;;;;;;;;4982182;28;45934;-79
2022/07/12 15:15:17;;;;;;;;;;;;;;;;;;4988102;28;44019;-77
2022/07/12 15:17:50;;;;;;;;;;;;;;;;;;4989692;28;45653;-78
2022/07/12 15:20:16;;;;;;;;;;;;;;;;;;4987846;28;47319;-78
2022/07/12 15:22:42;;;;;;;;;;;;;;;;;;4993915;28;43716;-78
2022/07/12 15:25:09;;;;;;;;;;;;;;;;;;4983417;28;46177;-78
2022/07/12 15:27:35;;;;;;;;;;;;;;;;;;4984468;28;45762;-78
2022/07/12 15:30:01;;;;;;;;;;;;;;;;;;4975760;28;46693;-77
2022/07/12 15:32:28;;;;;;;;;;;;;;;;;;5020897;28;46884;-78
2022/07/12 15:34:54;;;;;;;;;;;;;;;;;;5047273;28;45039;-77
2022/07/12 15:37:20;;;;;;;;;;;;;;;;;;5029217;28;47404;-78
2022/07/12 15:39:47;;;;;;;;;;;;;;;;;;5037396;28;48113;-77
2022/07/12 15:42:14;;;;;;;;;;;;;;;;;;5077964;28;45135;-78
2022/07/12 15:44:42;;;;;;;;;;;;;;;;;;5079618;28;44406;-78
2022/07/12 15:47:12;;;;;;;;;;;;;;;;;;5082255;28;48117;-78
2022/07/12 15:49:39;;;;;;;;;;;;;;;;;;5083787;28;43401;-77
2022/07/12 15:54:50;;;;;;;;;;;;;;;;;;5083821;28;44928;-77
2022/07/12 15:57:16;;;;;;;;;;;;;;;;;;5084198;28;46350;-78
2022/07/12 15:59:43;;;;;;;;;;;;;;;;;;5078686;28;48309;-78
2022/07/12 16:02:09;;;;;;;;;;;;;;;;;;5084717;28;42844;-78
2022/07/12 16:04:35;;;;;;;;;;;;;;;;;;5085504;28;47751;-77
2022/07/12 16:07:05;;;;;;;;;;;;;;;;;;5083306;28;48016;-78
2022/07/12 16:09:31;;;;;;;;;;;;;;;;;;5081374;28;42172;-78
2022/07/12 16:11:58;;;;;;;;;;;;;;;;;;5077315;28;44756;-78
2022/07/12 16:14:27;;;;;;;;;;;;;;;;;;5088668;28;44672;-78
2022/07/12 16:16:53;;;;;;;;;;;;;;;;;;5086221;28;46204;-78
2022/07/12 16:19:20;;;;;;;;;;;;;;;;;;5087704;28;48171;-78
2022/07/12 16:21:46;;;;;;;;;;;;;;;;;;5087244;28;44983;-78
2022/07/12 16:24:12;;;;;;;;;;;;;;;;;;5079579;28;44048;-77
2022/07/12 16:26:39;;;;;;;;;;;;;;;;;;5084059;28;47182;-77
2022/07/12 16:29:05;;;;;;;;;;;;;;;;;;5084804;28;43729;-77
2022/07/12 16:31:31;;;;;;;;;;;;;;;;;;5085602;28;46584;-78
2022/07/12 16:34:17;;;;;;;;;;;;;;;;;;5086984;28;19929;-78
2022/07/12 16:36:44;;;;;;;;;;;;;;;;;;5082131;28;44228;-78
2022/07/12 16:39:12;;;;;;;;;;;;;;;;;;5080566;28;48232;-78
2022/07/12 16:41:38;;;;;;;;;;;;;;;;;;5084969;28;43240;-78
2022/07/12 16:44:04;;;;;;;;;;;;;;;;;;5084742;28;45129;-78
2022/07/12 16:46:30;;;;;;;;;;;;;;;;;;5099771;28;44848;-78
2022/07/12 16:48:59;;;;;;;;;;;;;;;;;;5086397;28;43626;-78
2022/07/12 16:51:26;;;;;;;;;;;;;;;;;;5087578;28;48327;-78
2022/07/12 16:53:52;;;;;;;;;;;;;;;;;;5088597;28;46831;-78
2022/07/12 16:56:18;;;;;;;;;;;;;;;;;;5086919;28;47618;-78
2022/07/12 16:58:45;;;;;;;;;;;;;;;;;;5083490;28;46833;-78
2022/07/12 17:01:11;;;;;;;;;;;;;;;;;;5087376;28;43813;-78
2022/07/12 17:03:37;;;;;;;;;;;;;;;;;;5084260;28;46702;-77
2022/07/12 17:06:04;;;;;;;;;;;;;;;;;;5086999;28;45667;-78
2022/07/12 17:08:30;;;;;;;;;;;;;;;;;;5081722;28;42064;-78
2022/07/12 17:10:56;;;;;;;;;;;;;;;;;;5088126;28;46372;-78
2022/07/12 17:13:22;;;;;;;;;;;;;;;;;;5079057;28;51105;-77
2022/07/12 17:15:58;;;;;;;;;;;;;;;;;;5086609;28;44170;-78
2022/07/12 17:18:24;;;;;;;;;;;;;;;;;;5102751;28;48453;-79
2022/07/12 17:20:50;;;;;;;;;;;;;;;;;;5084915;28;44122;-79
2022/07/12 17:23:17;;;;;;;;;;;;;;;;;;5083358;28;47737;-79
2022/07/12 17:25:43;;;;;;;;;;;;;;;;;;5086771;28;48774;-79
2022/07/12 17:28:10;;;;;;;;;;;;;;;;;;5087054;28;43709;-78
2022/07/12 17:30:36;;;;;;;;;;;;;;;;;;5088055;28;46301;-77
2022/07/12 17:33:02;;;;;;;;;;;;;;;;;;5085683;28;47185;-78
2022/07/12 17:35:29;;;;;;;;;;;;;;;;;;5090933;28;44588;-79
2022/07/12 17:37:55;;;;;;;;;;;;;;;;;;5087229;28;46317;-78
2022/07/12 17:40:21;;;;;;;;;;;;;;;;;;5087301;28;44696;-80
2022/07/12 17:42:47;;;;;;;;;;;;;;;;;;5083338;28;46289;-79